Time,TemperatureF,DewpointF,PressureIn,WindDirection,WindDirectionDegrees,WindSpeedMPH,WindSpeedGustMPH,Humidity,HourlyPrecipIn,Conditions,Clouds,dailyrainin,SoftwareType,DateUTC
2013-01-13 00:00:00,50.2,42.6,30.11,SW,217,0.0,3.0,75,0.00,RA,,0.00,WeatherDisplay:10.37,2013-01-12 23:00:00,
2013-01-13 00:10:00,50.3,42.7,30.11,SW,217,0.0,1.0,75,0.00,CLR,,0.00,WeatherDisplay:10.37,2013-01-12 23:10:00,
2013-01-13 00:20:00,50.5,42.2,30.10,SW,217,0.0,3.0,73,0.00,CLR,,0.00,WeatherDisplay:10.37,2013-01-12 23:20:00,
2013-01-13 00:30:00,50.6,42.6,30.10,SW,217,0.0,1.0,74,0.00,CLR,,0.00,WeatherDisplay:10.37,2013-01-12 23:30:00,
2013-01-13 00:40:00,50.5,42.9,30.10,SW,217,0.0,1.0,75,0.00,CLR,,0.00,WeatherDisplay:10.37,2013-01-12 23:40:00,
2013-01-13 00:50:00,50.5,42.9,30.10,SW,217,0.0,3.0,75,0.00,CLR,,0.00,WeatherDisplay:10.37,2013-01-12 23:50:00,
2013-01-13 01:00:00,50.6,43.0,30.10,SSW,192,0.0,4.0,75,0.00,CLR,,0.00,WeatherDisplay:10.37,2013-01-13 00:00:00,
2013-01-13 01:10:00,50.5,42.9,30.10,SW,228,1.0,3.0,75,0.00,CLR,,0.00,WeatherDisplay:10.37,2013-01-13 00:10:00,
2013-01-13 01:20:00,50.6,43.0,30.10,SSW,203,1.0,5.0,75,0.00,CLR,,0.00,WeatherDisplay:10.37,2013-01-13 00:20:00,
2013-01-13 01:30:00,50.6,42.6,30.10,SW,218,1.0,4.0,74,0.00,CLR,,0.00,WeatherDisplay:10.37,2013-01-13 00:30:00,
2013-01-13 01:40:00,50.7,42.0,30.10,SSW,201,1.0,4.0,72,0.00,CLR,,0.00,WeatherDisplay:10.37,2013-01-13 00:40:00,
2013-01-13 01:50:00,50.8,41.7,30.10,SSW,209,2.0,5.0,71,0.00,CLR,,0.00,WeatherDisplay:10.37,2013-01-13 00:50:00,
2013-01-13 02:00:00,51.0,41.2,30.10,SSW,193,2.0,5.0,69,0.00,CLR,,0.00,WeatherDisplay:10.37,2013-01-13 01:00:00,
2013-01-13 02:10:00,51.2,41.4,30.10,South,188,1.0,6.0,69,0.00,CLR,,0.00,WeatherDisplay:10.37,2013-01-13 01:10:00,
2013-01-13 02:20:00,51.4,41.2,30.09,SW,214,1.0,5.0,68,0.00,CLR,,0.00,WeatherDisplay:10.37,2013-01-13 01:20:00,
2013-01-13 02:30:00,51.2,41.4,30.09,SSW,207,0.0,5.0,69,0.00,CLR,,0.00,WeatherDisplay:10.37,2013-01-13 01:30:00,
2013-01-13 02:40:00,51.0,41.2,30.09,South,184,0.0,4.0,69,0.00,CLR,,0.00,WeatherDisplay:10.37,2013-01-13 01:40:00,
2013-01-13 02:50:00,51.2,41.0,30.09,SSW,208,1.0,5.0,68,0.00,CLR,,0.00,WeatherDisplay:10.37,2013-01-13 01:50:00,
2013-01-13 03:00:00,51.2,41.0,30.08,SSW,209,0.0,5.0,68,0.00,CLR,,0.00,WeatherDisplay:10.37,2013-01-13 02:00:00,
2013-01-13 03:20:00,51.1,42.0,30.08,SSW,205,0.0,3.0,71,0.00,CLR,,0.00,WeatherDisplay:10.37,2013-01-13 02:20:00,
2013-01-13 03:30:00,51.3,42.6,30.07,SSW,198,2.0,5.0,72,0.00,CLR,,0.00,WeatherDisplay:10.37,2013-01-13 02:30:00,
2013-01-13 03:40:00,51.9,43.2,30.07,SSW,204,2.0,7.0,72,0.00,CLR,,0.00,WeatherDisplay:10.37,2013-01-13 02:40:00,
2013-01-13 03:50:00,52.2,43.4,30.07,SSW,206,2.0,6.0,72,0.00,CLR,,0.00,WeatherDisplay:10.37,2013-01-13 02:50:00,
2013-01-13 04:00:00,52.3,43.2,30.06,SSW,193,2.0,8.0,71,0.00,CLR,,0.00,WeatherDisplay:10.37,2013-01-13 03:00:00,
2013-01-13 04:10:00,52.4,42.9,30.06,South,189,2.0,6.0,70,0.00,CLR,,0.00,WeatherDisplay:10.37,2013-01-13 03:10:00,
2013-01-13 04:20:00,52.4,43.3,30.05,SSW,199,3.0,5.0,71,0.00,CLR,,0.00,WeatherDisplay:10.37,2013-01-13 03:20:00,
2013-01-13 04:30:00,52.4,42.9,30.05,South,188,2.0,8.0,70,0.00,CLR,,0.00,WeatherDisplay:10.37,2013-01-13 03:30:00,
2013-01-13 04:40:00,52.4,43.6,30.05,SSW,199,1.0,8.0,72,0.00,CLR,,0.00,WeatherDisplay:10.37,2013-01-13 03:40:00,
2013-01-13 04:50:00,52.2,43.4,30.05,South,191,2.0,7.0,72,0.00,CLR,,0.00,WeatherDisplay:10.37,2013-01-13 03:50:00,
2013-01-13 05:00:00,52.1,43.3,30.04,SSW,210,1.0,6.0,72,0.00,CLR,,0.00,WeatherDisplay:10.37,2013-01-13 04:00:00,
2013-01-13 05:10:00,52.0,43.3,30.04,South,172,2.0,5.0,72,0.00,CLR,,0.00,WeatherDisplay:10.37,2013-01-13 04:10:00,
2013-01-13 05:20:00,51.9,42.8,30.04,SSW,194,0.0,4.0,71,0.00,CLR,,0.00,WeatherDisplay:10.37,2013-01-13 04:20:00,
2013-01-13 05:30:00,51.8,43.1,30.04,South,172,0.0,5.0,72,0.00,CLR,,0.00,WeatherDisplay:10.37,2013-01-13 04:30:00,
2013-01-13 05:40:00,51.9,43.5,30.03,SSW,194,1.0,4.0,73,0.00,CLR,,0.00,WeatherDisplay:10.37,2013-01-13 04:40:00,
2013-01-13 05:50:00,52.0,43.6,30.04,SSW,205,0.0,3.0,73,0.00,CLR,,0.00,WeatherDisplay:10.37,2013-01-13 04:50:00,
2013-01-13 06:10:00,52.3,43.2,30.03,South,176,2.0,5.0,71,0.00,CLR,,0.00,WeatherDisplay:10.37,2013-01-13 05:10:00,
2013-01-13 06:20:00,52.6,42.7,30.03,SSW,197,1.0,6.0,69,0.00,CLR,,0.00,WeatherDisplay:10.37,2013-01-13 05:20:00,
2013-01-13 06:30:00,52.9,42.2,30.04,South,172,1.0,9.0,67,0.00,CLR,,0.00,WeatherDisplay:10.37,2013-01-13 05:30:00,
2013-01-13 06:40:00,53.1,43.2,30.04,South,171,1.0,8.0,69,0.00,CLR,,0.00,WeatherDisplay:10.37,2013-01-13 05:40:00,
2013-01-13 06:50:00,53.1,43.9,30.04,South,185,2.0,10.0,71,0.00,CLR,,0.00,WeatherDisplay:10.37,2013-01-13 05:50:00,
2013-01-13 07:00:00,53.1,44.7,30.03,South,179,1.0,7.0,73,0.00,CLR,,0.00,WeatherDisplay:10.37,2013-01-13 06:00:00,
2013-01-13 07:10:00,53.0,44.6,30.03,South,176,2.0,8.0,73,0.00,CLR,,0.00,WeatherDisplay:10.37,2013-01-13 06:10:00,
2013-01-13 07:20:00,53.1,43.2,30.03,SSE,163,3.0,12.0,69,0.00,CLR,,0.00,WeatherDisplay:10.37,2013-01-13 06:20:00,
2013-01-13 07:30:00,53.1,42.8,30.03,South,176,3.0,9.0,68,0.00,CLR,,0.00,WeatherDisplay:10.37,2013-01-13 06:30:00,
2013-01-13 07:40:00,52.7,42.8,30.02,South,170,2.0,7.0,69,0.00,CLR,,0.00,WeatherDisplay:10.37,2013-01-13 06:40:00,
2013-01-13 07:50:00,52.3,42.8,30.03,South,173,1.0,7.0,70,0.00,CLR,,0.00,WeatherDisplay:10.37,2013-01-13 06:50:00,
2013-01-13 08:00:00,52.2,42.3,30.04,South,176,2.0,5.0,69,0.00,CLR,,0.00,WeatherDisplay:10.37,2013-01-13 07:00:00,
2013-01-13 08:10:00,51.4,43.1,30.04,South,180,1.0,9.0,73,0.02,RA,,0.02,WeatherDisplay:10.37,2013-01-13 07:10:00,
2013-01-13 08:20:00,50.5,44.2,30.04,South,178,0.0,6.0,79,0.02,RA,,0.03,WeatherDisplay:10.37,2013-01-13 07:20:00,
2013-01-13 08:30:00,50.4,46.1,30.04,SSW,201,0.0,5.0,85,0.00,,,0.03,WeatherDisplay:10.37,2013-01-13 07:30:00,
2013-01-13 08:40:00,50.5,46.8,30.04,SE,136,0.0,2.0,87,0.00,CLR,,0.03,WeatherDisplay:10.37,2013-01-13 07:40:00,
2013-01-13 08:50:00,50.5,46.8,30.04,SE,146,0.0,2.0,87,0.00,CLR,,0.03,WeatherDisplay:10.37,2013-01-13 07:50:00,
2013-01-13 09:00:00,50.8,47.4,30.04,SE,146,0.0,2.0,88,0.00,CLR,,0.03,WeatherDisplay:10.37,2013-01-13 08:00:00,
2013-01-13 09:10:00,51.1,47.6,30.04,SSE,151,0.0,3.0,88,0.00,CLR,,0.03,WeatherDisplay:10.37,2013-01-13 08:10:00,
2013-01-13 09:20:00,51.3,47.6,30.03,South,177,1.0,5.0,87,0.00,CLR,,0.03,WeatherDisplay:10.37,2013-01-13 08:20:00,
2013-01-13 09:30:00,51.3,46.9,30.04,South,173,2.0,5.0,85,0.00,CLR,,0.03,WeatherDisplay:10.37,2013-01-13 08:30:00,
2013-01-13 09:40:00,51.6,47.2,30.03,SSE,165,1.0,6.0,85,0.00,CLR,,0.03,WeatherDisplay:10.37,2013-01-13 08:40:00,
2013-01-13 09:50:00,52.0,47.3,30.03,SSW,194,2.0,6.0,84,0.00,CLR,,0.03,WeatherDisplay:10.37,2013-01-13 08:50:00,
2013-01-13 10:00:00,52.4,47.4,30.03,South,179,0.0,4.0,83,0.00,CLR,,0.03,WeatherDisplay:10.37,2013-01-13 09:00:00,
2013-01-13 10:10:00,53.2,48.5,30.04,SSW,210,2.0,7.0,84,0.00,CLR,,0.03,WeatherDisplay:10.37,2013-01-13 09:10:00,
2013-01-13 10:20:00,54.3,49.0,30.03,SSW,196,5.0,10.0,82,0.00,CLR,,0.03,WeatherDisplay:10.37,2013-01-13 09:20:00,
2013-01-13 10:30:00,55.3,48.9,30.03,South,180,1.0,9.0,79,0.00,CLR,,0.03,WeatherDisplay:10.37,2013-01-13 09:30:00,
2013-01-13 10:40:00,55.0,47.9,30.03,South,171,3.0,13.0,77,0.00,CLR,,0.03,WeatherDisplay:10.37,2013-01-13 09:40:00,
2013-01-13 23:40:00,55.5,51.1,29.92,South,173,6.0,15.0,85,0.00,CLR,,0.03,WeatherDisplay:10.37,2013-01-13 22:40:00,
2013-01-13 23:50:00,55.5,51.1,29.92,South,183,5.0,15.0,85,0.00,CLR,,0.03,WeatherDisplay:10.37,2013-01-13 22:50:00,